createdAt,value
2023-04-14T00:00:42.578Z,2.27
2023-04-14T00:03:09.779Z,2.10
2023-04-14T00:05:36.895Z,2.08
2023-04-14T00:08:03.894Z,2.50
2023-04-14T00:10:30.794Z,2.22
2023-04-14T00:12:57.821Z,2.10
2023-04-14T00:15:24.715Z,2.42
2023-04-14T00:17:51.780Z,1.88
2023-04-14T00:20:18.926Z,2.30
2023-04-14T00:22:46.056Z,2.17
2023-04-14T00:25:12.986Z,2.50
2023-04-14T00:27:39.940Z,2.40
2023-04-14T00:30:07.511Z,2.42
2023-04-14T00:32:34.406Z,2.45
2023-04-14T00:35:03.580Z,2.10
2023-04-14T00:37:30.924Z,2.00
2023-04-14T00:39:57.930Z,2.42
2023-04-14T00:42:25.162Z,2.30
2023-04-14T00:44:52.168Z,2.35
2023-04-14T00:47:19.348Z,2.40
2023-04-14T00:49:46.734Z,2.13
2023-04-14T00:52:13.934Z,2.10
2023-04-14T00:54:41.238Z,2.20
2023-04-14T00:57:09.709Z,2.10
2023-04-14T00:59:37.225Z,2.00
2023-04-14T01:02:04.429Z,2.30
2023-04-14T01:04:49.164Z,2.00
2023-04-14T01:07:20.554Z,2.10
2023-04-14T01:09:47.854Z,1.95
2023-04-14T01:12:36.276Z,1.88
2023-04-14T01:15:35.721Z,2.10
2023-04-14T01:18:10.381Z,1.90
2023-04-14T01:20:48.852Z,2.20
2023-04-14T01:23:32.392Z,1.80
2023-04-14T01:26:22.033Z,2.20
2023-04-14T01:29:15.783Z,2.10
2023-04-14T01:31:42.660Z,1.90
2023-04-14T01:34:31.122Z,2.05
2023-04-14T01:37:07.594Z,2.30
2023-04-14T01:39:38.890Z,2.20
2023-04-14T01:42:10.502Z,2.47
2023-04-14T01:44:40.623Z,2.40
2023-04-14T01:47:11.065Z,1.85
2023-04-14T01:49:40.321Z,2.00
2023-04-14T01:52:11.596Z,1.70
2023-04-14T01:54:41.466Z,1.85
2023-04-14T01:57:11.795Z,2.00
2023-04-14T01:59:41.655Z,2.00
2023-04-14T02:02:10.015Z,2.23
2023-04-14T02:04:38.348Z,1.98
2023-04-14T02:07:06.429Z,1.90
2023-04-14T02:09:35.623Z,2.00
2023-04-14T02:12:04.715Z,1.88
2023-04-14T02:14:33.346Z,2.30
2023-04-14T02:17:02.640Z,2.20
2023-04-14T02:19:30.650Z,1.98
2023-04-14T02:21:58.535Z,2.10
2023-04-14T02:24:25.479Z,2.20
2023-04-14T02:26:59.935Z,2.10
2023-04-14T02:29:28.789Z,2.03
2023-04-14T02:32:06.273Z,2.30
2023-04-14T02:34:38.433Z,2.35
2023-04-14T02:37:13.645Z,2.10
2023-04-14T02:39:50.637Z,2.70
2023-04-14T02:42:20.915Z,1.90
2023-04-14T02:44:56.824Z,2.00
2023-04-14T02:47:31.797Z,1.75
2023-04-14T02:49:59.946Z,1.90
2023-04-14T02:52:29.421Z,1.70
2023-04-14T02:54:57.576Z,2.13
2023-04-14T02:57:26.173Z,2.10
2023-04-14T02:59:54.795Z,2.10
2023-04-14T03:02:22.874Z,2.00
2023-04-14T03:04:50.019Z,2.10
2023-04-14T03:07:19.390Z,1.90
2023-04-14T03:09:49.559Z,2.20
2023-04-14T03:12:18.450Z,2.10
2023-04-14T03:14:45.553Z,1.80
2023-04-14T03:17:14.794Z,1.90
2023-04-14T03:19:43.229Z,1.90
2023-04-14T03:22:11.234Z,2.20
2023-04-14T03:24:39.216Z,2.20
2023-04-14T03:27:10.638Z,1.88
2023-04-14T03:29:45.039Z,1.80
2023-04-14T03:32:13.985Z,1.90
2023-04-14T03:34:47.128Z,1.90
2023-04-14T03:37:18.100Z,1.60
2023-04-14T03:39:47.614Z,2.10
2023-04-14T03:42:16.452Z,1.70
2023-04-14T03:44:50.055Z,1.70
2023-04-14T03:47:18.666Z,1.60
2023-04-14T03:49:48.854Z,2.25
2023-04-14T03:52:21.035Z,2.10
2023-04-14T03:54:49.518Z,1.75
2023-04-14T03:57:17.821Z,2.20
2023-04-14T03:59:47.002Z,2.00
2023-04-14T04:02:16.148Z,2.00
2023-04-14T04:04:44.763Z,1.67
2023-04-14T04:07:16.459Z,1.90
2023-04-14T04:09:44.354Z,1.70
2023-04-14T04:12:13.602Z,1.75
2023-04-14T04:14:40.657Z,1.80
2023-04-14T04:17:09.117Z,2.20
2023-04-14T04:19:37.173Z,1.70
2023-04-14T04:22:04.754Z,1.90
2023-04-14T04:24:38.598Z,2.23
2023-04-14T04:27:09.908Z,1.60
2023-04-14T04:29:41.771Z,1.70
2023-04-14T04:32:09.086Z,2.58
2023-04-14T04:34:36.913Z,2.20
2023-04-14T04:37:05.397Z,1.85
2023-04-14T04:39:32.601Z,2.00
2023-04-14T04:42:04.117Z,2.10
2023-04-14T04:44:34.853Z,2.05
2023-04-14T04:47:02.817Z,2.50
2023-04-14T04:49:29.773Z,1.83
2023-04-14T04:51:57.038Z,1.80
2023-04-14T04:54:24.047Z,1.95
2023-04-14T04:56:51.075Z,1.88
2023-04-14T04:59:17.988Z,2.30
2023-04-14T05:01:44.942Z,2.00
2023-04-14T05:04:12.016Z,1.90
2023-04-14T05:06:39.007Z,2.10
2023-04-14T05:09:06.605Z,2.10
2023-04-14T05:11:35.281Z,1.80
2023-04-14T05:14:02.755Z,1.80
2023-04-14T05:16:30.009Z,2.10
2023-04-14T05:18:56.965Z,2.13
2023-04-14T05:21:24.014Z,1.90
2023-04-14T05:23:51.101Z,2.40
2023-04-14T05:28:48.036Z,1.90
2023-04-14T05:31:15.130Z,2.10
2023-04-14T05:33:41.974Z,2.20
2023-04-14T05:36:08.924Z,2.00
2023-04-14T05:38:42.061Z,2.40
2023-04-14T05:41:09.203Z,2.00
2023-04-14T05:43:36.966Z,2.03
2023-04-14T05:46:04.281Z,2.30
2023-04-14T05:48:33.370Z,2.00
2023-04-14T05:51:00.737Z,2.03
2023-04-14T05:53:27.934Z,1.80
2023-04-14T05:55:56.831Z,2.30
2023-04-14T05:58:26.278Z,1.80
2023-04-14T06:00:53.372Z,2.40
2023-04-14T06:03:20.585Z,2.40
2023-04-14T06:05:48.235Z,1.90
2023-04-14T06:08:15.373Z,2.03
2023-04-14T06:10:42.217Z,1.90
2023-04-14T06:13:09.572Z,2.17
2023-04-14T06:15:37.064Z,2.10
2023-04-14T06:18:04.158Z,2.13
2023-04-14T06:20:32.587Z,2.00
2023-04-14T06:23:00.850Z,2.10
2023-04-14T06:25:27.741Z,2.03
2023-04-14T06:27:54.538Z,2.10
2023-04-14T06:30:21.507Z,1.83
2023-04-14T06:32:51.621Z,2.40
2023-04-14T06:35:31.982Z,2.40
2023-04-14T06:38:00.413Z,2.40
2023-04-14T06:40:27.399Z,1.80
2023-04-14T06:42:54.265Z,2.10
2023-04-14T06:45:21.357Z,2.13
2023-04-14T06:47:48.263Z,2.00
2023-04-14T06:50:15.250Z,2.10
2023-04-14T06:52:42.078Z,2.28
2023-04-14T06:55:09.365Z,2.30
2023-04-14T06:57:36.206Z,2.10
2023-04-14T07:00:07.450Z,1.90
2023-04-14T07:02:34.469Z,2.10
2023-04-14T07:05:01.634Z,2.00
2023-04-14T07:07:28.585Z,2.30
2023-04-14T07:09:55.543Z,1.90
2023-04-14T07:12:22.397Z,2.10
2023-04-14T07:14:52.564Z,1.98
2023-04-14T07:17:19.940Z,2.20
2023-04-14T07:19:47.207Z,2.10
2023-04-14T07:22:14.060Z,2.30
2023-04-14T07:24:41.106Z,2.35
2023-04-14T07:27:15.021Z,2.03
2023-04-14T07:29:42.588Z,2.00
2023-04-14T07:32:09.721Z,2.10
2023-04-14T07:34:37.160Z,1.88
2023-04-14T07:37:04.225Z,1.90
2023-04-14T07:39:31.284Z,2.20
2023-04-14T07:41:59.081Z,2.30
2023-04-14T07:44:26.358Z,2.03
2023-04-14T07:46:53.433Z,2.10
2023-04-14T07:49:20.338Z,2.27
2023-04-14T07:51:47.306Z,2.10
2023-04-14T07:54:14.431Z,2.33
2023-04-14T07:56:41.449Z,2.30
2023-04-14T07:59:08.276Z,2.50
2023-04-14T08:01:35.115Z,2.17
2023-04-14T08:04:02.257Z,2.10
2023-04-14T08:06:29.406Z,2.28
2023-04-14T08:08:56.361Z,2.40
2023-04-14T08:11:23.222Z,2.10
2023-04-14T08:13:50.263Z,2.20
2023-04-14T08:16:17.295Z,2.42
2023-04-14T08:18:44.473Z,2.10
2023-04-14T08:21:11.659Z,2.28
2023-04-14T08:23:38.509Z,2.10
2023-04-14T08:26:05.529Z,2.30
2023-04-14T08:28:32.422Z,2.00
2023-04-14T08:30:59.243Z,2.08
2023-04-14T08:33:26.124Z,2.47
2023-04-14T08:35:58.010Z,2.30
2023-04-14T08:38:27.662Z,2.17
2023-04-14T08:40:58.874Z,2.42
2023-04-14T08:43:25.745Z,2.30
2023-04-14T08:45:53.731Z,1.90
2023-04-14T08:48:23.593Z,2.03
2023-04-14T08:51:10.254Z,2.10
2023-04-14T08:53:45.933Z,2.30
2023-04-14T08:56:16.303Z,2.38
2023-04-14T08:58:43.638Z,1.98
2023-04-14T09:01:11.326Z,2.33
2023-04-14T09:03:38.429Z,2.10
2023-04-14T09:06:06.158Z,2.20
2023-04-14T09:08:35.916Z,2.05
2023-04-14T09:11:03.693Z,2.00
2023-04-14T09:13:31.633Z,2.10
2023-04-14T09:16:00.190Z,2.00
2023-04-14T09:18:28.528Z,2.20
2023-04-14T09:21:32.979Z,2.30
2023-04-14T09:23:42.776Z,2.10
2023-04-14T09:26:10.573Z,2.10
2023-04-14T09:28:38.160Z,2.00
2023-04-14T09:31:05.566Z,2.07
2023-04-14T09:33:34.194Z,2.17
2023-04-14T09:36:01.318Z,2.20
2023-04-14T09:38:39.164Z,2.10
2023-04-14T09:41:06.744Z,2.40
2023-04-14T09:43:34.099Z,2.10
2023-04-14T09:46:09.809Z,2.10
2023-04-14T09:48:49.251Z,2.10
2023-04-14T09:51:16.154Z,1.90
2023-04-14T09:53:42.998Z,2.05
2023-04-14T09:56:12.045Z,1.98
2023-04-14T09:58:43.968Z,2.60
2023-04-14T10:01:15.717Z,1.90
2023-04-14T10:03:44.957Z,2.10
2023-04-14T10:06:22.900Z,1.90
2023-04-14T10:08:59.228Z,1.83
2023-04-14T10:11:27.430Z,1.90
2023-04-14T10:13:56.635Z,1.80
2023-04-14T10:16:24.482Z,1.80
2023-04-14T10:18:52.759Z,1.90
2023-04-14T10:21:24.442Z,1.80
2023-04-14T10:23:52.040Z,1.90
2023-04-14T10:26:19.854Z,1.80
2023-04-14T10:28:49.834Z,1.63
2023-04-14T10:31:28.624Z,1.90
2023-04-14T10:33:55.784Z,1.58
2023-04-14T10:36:28.163Z,1.80
2023-04-14T10:39:03.583Z,1.90
2023-04-14T10:41:56.975Z,1.77
2023-04-14T10:44:32.340Z,1.70
2023-04-14T10:47:02.051Z,1.60
2023-04-14T10:49:41.197Z,1.70
2023-04-14T10:52:17.242Z,1.80
2023-04-14T10:54:54.322Z,1.83
2023-04-14T10:57:25.490Z,1.67
2023-04-14T10:59:57.540Z,1.70
2023-04-14T11:02:34.509Z,1.40
2023-04-14T11:05:11.327Z,1.58
2023-04-14T11:07:46.352Z,1.50
2023-04-14T11:10:22.254Z,1.60
2023-04-14T11:12:56.591Z,1.80
2023-04-14T11:15:23.911Z,1.60
2023-04-14T11:17:51.651Z,1.50
2023-04-14T11:20:21.116Z,1.25
2023-04-14T11:22:51.254Z,1.50
2023-04-14T11:25:23.050Z,1.40
2023-04-14T11:27:52.261Z,1.70
2023-04-14T11:30:20.693Z,1.58
2023-04-14T11:32:59.425Z,1.40
2023-04-14T11:35:30.141Z,1.20
2023-04-14T11:37:59.126Z,1.50
2023-04-14T11:40:27.557Z,1.33
2023-04-14T11:42:57.006Z,1.60
2023-04-14T11:45:30.976Z,1.55
2023-04-14T11:48:01.497Z,1.20
2023-04-14T11:50:31.381Z,1.17
2023-04-14T11:53:00.322Z,1.50
2023-04-14T11:55:28.092Z,1.30
2023-04-14T11:57:56.258Z,1.15
2023-04-14T12:00:24.286Z,1.40
2023-04-14T12:02:51.873Z,1.40
2023-04-14T12:05:21.968Z,1.23
2023-04-14T12:07:49.788Z,1.50
2023-04-14T12:10:16.884Z,1.50
2023-04-14T12:12:43.890Z,1.50
2023-04-14T12:15:11.650Z,1.50
2023-04-14T12:17:38.794Z,1.48
2023-04-14T12:20:06.214Z,1.30
2023-04-14T12:22:33.114Z,1.50
2023-04-14T12:25:00.249Z,1.42
2023-04-14T12:27:27.705Z,1.40
2023-04-14T12:29:54.879Z,1.33
2023-04-14T12:32:22.814Z,1.40
2023-04-14T12:34:54.252Z,1.40
2023-04-14T12:37:26.540Z,1.40
2023-04-14T12:39:58.267Z,1.50
2023-04-14T12:42:29.648Z,1.60
2023-04-14T12:45:00.609Z,1.58
2023-04-14T12:47:34.609Z,1.50
2023-04-14T12:50:21.539Z,1.80
2023-04-14T12:52:48.553Z,1.55
2023-04-14T12:55:44.572Z,1.50
2023-04-14T12:58:11.873Z,1.60
2023-04-14T13:00:40.265Z,1.55
2023-04-14T13:03:07.838Z,1.40
2023-04-14T13:05:35.062Z,1.40
2023-04-14T13:08:02.013Z,1.33
2023-04-14T13:10:28.832Z,1.60
2023-04-14T13:12:55.687Z,1.40
2023-04-14T13:16:11.626Z,1.40
2023-04-14T13:18:09.396Z,1.58
2023-04-14T13:20:36.549Z,1.60
2023-04-14T13:23:03.470Z,1.60
2023-04-14T13:25:30.572Z,1.42
2023-04-14T13:27:57.468Z,1.30
2023-04-14T13:30:24.347Z,1.30
2023-04-14T13:32:51.175Z,1.70
2023-04-14T13:35:18.138Z,1.70
2023-04-14T13:37:44.932Z,1.33
2023-04-14T13:40:12.114Z,1.30
2023-04-14T13:42:38.937Z,1.40
2023-04-14T13:45:06.523Z,1.20
2023-04-14T13:47:33.396Z,1.40
2023-04-14T13:50:00.994Z,1.30
2023-04-14T13:52:27.863Z,1.20
2023-04-14T13:54:54.741Z,1.30
2023-04-14T13:57:21.892Z,1.60
2023-04-14T13:59:50.387Z,1.25
2023-04-14T14:02:17.545Z,1.40
2023-04-14T14:04:44.801Z,1.30
2023-04-14T14:07:11.890Z,1.38
2023-04-14T14:09:38.734Z,1.60
2023-04-14T14:12:05.760Z,1.52
2023-04-14T14:14:32.749Z,1.50
2023-04-14T14:16:59.582Z,1.58
2023-04-14T14:19:26.518Z,1.23
2023-04-14T14:21:53.413Z,1.13
2023-04-14T14:24:20.270Z,1.40
2023-04-14T14:26:47.227Z,1.43
2023-04-14T14:29:14.097Z,1.45
2023-04-14T14:31:41.175Z,1.50
2023-04-14T14:34:09.512Z,1.60
2023-04-14T14:36:36.396Z,1.50
2023-04-14T14:39:03.516Z,1.40
2023-04-14T14:41:30.458Z,1.33
2023-04-14T14:43:58.595Z,1.40
2023-04-14T14:46:26.385Z,1.30
2023-04-14T14:48:53.313Z,1.50
2023-04-14T14:51:20.250Z,1.27
2023-04-14T14:53:47.073Z,1.27
2023-04-14T14:56:13.954Z,1.50
2023-04-14T14:58:41.226Z,1.27
2023-04-14T15:01:08.158Z,1.20
2023-04-14T15:03:35.141Z,1.30
2023-04-14T15:06:02.230Z,1.20
2023-04-14T15:08:29.485Z,1.20
2023-04-14T15:10:56.342Z,1.30
2023-04-14T15:13:23.868Z,1.60
2023-04-14T15:15:50.668Z,1.30
2023-04-14T15:18:17.647Z,1.20
2023-04-14T15:20:44.640Z,1.00
2023-04-14T15:23:11.491Z,1.20
2023-04-14T15:25:38.357Z,1.40
2023-04-14T15:28:05.678Z,1.35
2023-04-14T15:30:32.521Z,1.35
2023-04-14T15:32:59.501Z,1.40
2023-04-14T15:35:26.551Z,1.20
2023-04-14T15:37:53.415Z,1.33
2023-04-14T15:40:20.383Z,1.50
2023-04-14T15:42:47.168Z,1.20
2023-04-14T15:45:14.104Z,1.60
2023-04-14T15:47:40.931Z,1.40
2023-04-14T15:50:10.548Z,1.35
2023-04-14T15:52:39.529Z,1.40
2023-04-14T15:55:07.520Z,1.20
2023-04-14T15:57:34.325Z,1.23
2023-04-14T16:00:02.899Z,1.30
2023-04-14T16:02:33.257Z,1.38
2023-04-14T16:05:00.322Z,1.30
2023-04-14T16:07:30.280Z,1.50
2023-04-14T16:09:57.316Z,1.30
2023-04-14T16:12:24.253Z,1.38
2023-04-14T16:14:57.243Z,1.30
2023-04-14T16:17:24.276Z,1.20
2023-04-14T16:19:51.878Z,1.40
2023-04-14T16:22:18.813Z,1.20
2023-04-14T16:24:46.542Z,1.23
2023-04-14T16:27:13.472Z,1.30
2023-04-14T16:29:41.592Z,1.33
2023-04-14T16:32:08.740Z,1.50
2023-04-14T16:34:35.762Z,1.30
2023-04-14T16:37:02.606Z,1.20
2023-04-14T16:39:31.460Z,1.20
2023-04-14T16:41:58.538Z,1.30
2023-04-14T16:44:25.332Z,1.15
2023-04-14T16:46:53.120Z,1.30
2023-04-14T16:49:20.169Z,1.55
2023-04-14T16:51:47.068Z,1.23
2023-04-14T16:54:13.874Z,1.20
2023-04-14T16:56:40.939Z,1.20
2023-04-14T16:59:08.955Z,1.27
2023-04-14T17:01:36.044Z,1.20
2023-04-14T17:04:04.154Z,1.17
2023-04-14T17:06:31.680Z,1.40
2023-04-14T17:09:00.630Z,1.20
2023-04-14T17:11:27.513Z,1.40
2023-04-14T17:13:54.704Z,1.30
2023-04-14T17:16:21.623Z,1.20
2023-04-14T17:18:49.045Z,1.50
2023-04-14T17:21:15.879Z,1.52
2023-04-14T17:23:43.290Z,1.20
2023-04-14T17:26:10.171Z,1.20
2023-04-14T17:28:38.609Z,1.38
2023-04-14T17:31:15.838Z,1.30
2023-04-14T17:33:46.059Z,1.40
2023-04-14T17:36:15.021Z,1.30
2023-04-14T17:38:43.168Z,1.50
2023-04-14T17:41:11.649Z,1.30
2023-04-14T17:43:41.375Z,1.40
2023-04-14T17:46:09.029Z,1.40
2023-04-14T17:48:35.907Z,1.50
2023-04-14T17:51:03.504Z,1.10
2023-04-14T17:53:31.015Z,1.30
2023-04-14T17:55:58.083Z,1.20
2023-04-14T17:58:26.305Z,1.90
2023-04-14T18:00:53.800Z,1.80
2023-04-14T18:03:21.098Z,1.80
2023-04-14T18:05:48.401Z,2.00
2023-04-14T18:08:16.102Z,1.85
2023-04-14T18:10:45.571Z,1.50
2023-04-14T18:13:12.901Z,1.45
2023-04-14T18:15:41.353Z,1.40
2023-04-14T18:18:08.911Z,1.50
2023-04-14T18:20:36.347Z,1.30
2023-04-14T18:23:03.336Z,1.38
2023-04-14T18:28:03.606Z,1.70
2023-04-14T18:30:31.453Z,1.20
2023-04-14T18:32:58.781Z,1.30
2023-04-14T18:35:26.467Z,1.10
2023-04-14T18:37:53.724Z,1.30
2023-04-14T18:40:20.527Z,1.50
2023-04-14T18:42:48.992Z,1.80
2023-04-14T18:45:16.005Z,1.60
2023-04-14T18:47:43.162Z,1.90
2023-04-14T18:50:10.981Z,1.70
2023-04-14T18:52:37.823Z,2.00
2023-04-14T18:55:05.141Z,1.30
2023-04-14T18:57:32.004Z,2.95
2023-04-14T18:59:59.162Z,1.90
2023-04-14T19:02:26.156Z,1.60
2023-04-14T19:04:53.420Z,1.48
2023-04-14T19:07:20.376Z,2.50
2023-04-14T19:09:47.214Z,2.45
2023-04-14T19:12:25.364Z,2.60
2023-04-14T19:14:55.454Z,3.58
2023-04-14T19:17:22.505Z,2.60
2023-04-14T19:19:50.233Z,2.88
2023-04-14T19:22:17.172Z,3.83
2023-04-14T19:24:44.070Z,4.50
2023-04-14T19:27:10.941Z,2.20
2023-04-14T19:29:37.792Z,4.38
2023-04-14T19:32:05.439Z,4.10
2023-04-14T19:34:32.376Z,2.30
2023-04-14T19:36:59.206Z,3.50
2023-04-14T19:39:26.076Z,5.10
2023-04-14T19:41:52.915Z,4.10
2023-04-14T19:44:19.894Z,3.35
2023-04-14T19:46:46.719Z,2.83
2023-04-14T19:49:14.289Z,2.70
2023-04-14T19:51:41.539Z,3.00
2023-04-14T19:54:08.804Z,2.00
2023-04-14T19:56:35.715Z,1.70
2023-04-14T19:59:04.001Z,1.60
2023-04-14T20:01:31.469Z,1.50
2023-04-14T20:04:05.557Z,1.80
2023-04-14T20:06:39.521Z,1.50
2023-04-14T20:09:06.531Z,1.50
2023-04-14T20:11:33.417Z,1.60
2023-04-14T20:14:00.557Z,1.60
2023-04-14T20:16:27.638Z,1.80
2023-04-14T20:18:54.573Z,1.52
2023-04-14T20:21:21.758Z,1.70
2023-04-14T20:23:48.752Z,1.80
2023-04-14T20:26:16.474Z,1.80
2023-04-14T20:28:43.761Z,1.55
2023-04-14T20:31:11.149Z,1.52
2023-04-14T20:33:38.110Z,1.70
2023-04-14T20:36:06.673Z,1.50
2023-04-14T20:38:34.556Z,1.50
2023-04-14T20:41:01.408Z,1.58
2023-04-14T20:43:33.488Z,1.20
2023-04-14T20:46:01.181Z,1.40
2023-04-14T20:48:30.966Z,1.38
2023-04-14T20:50:59.595Z,1.48
2023-04-14T20:53:28.451Z,2.35
2023-04-14T20:55:56.392Z,1.70
2023-04-14T20:58:23.690Z,2.00
2023-04-14T21:00:50.804Z,1.70
2023-04-14T21:03:18.312Z,1.50
2023-04-14T21:05:46.282Z,2.75
2023-04-14T21:08:13.610Z,7.43
2023-04-14T21:11:15.655Z,2.20
2023-04-14T21:15:45.662Z,1.70
2023-04-14T21:16:15.770Z,2.03
2023-04-14T21:18:42.766Z,4.23
2023-04-14T21:21:11.444Z,2.40
2023-04-14T21:23:38.334Z,2.30
2023-04-14T21:26:05.275Z,1.80
2023-04-14T21:28:32.643Z,2.00
2023-04-14T21:31:03.033Z,2.90
2023-04-14T21:33:32.765Z,2.40
2023-04-14T21:36:00.465Z,1.80
2023-04-14T21:38:27.926Z,3.20
2023-04-14T21:40:54.948Z,3.43
2023-04-14T21:43:22.188Z,3.47
2023-04-14T21:45:49.725Z,3.28
2023-04-14T21:48:17.283Z,3.40
2023-04-14T21:50:44.159Z,4.47
2023-04-14T21:53:11.033Z,5.25
2023-04-14T21:55:38.232Z,11.23
2023-04-14T21:58:05.608Z,3.60
2023-04-14T22:00:32.650Z,1.80
2023-04-14T22:02:59.733Z,1.60
2023-04-14T22:05:26.697Z,2.20
2023-04-14T22:07:53.878Z,2.65
2023-04-14T22:10:22.079Z,2.80
2023-04-14T22:12:49.209Z,2.33
2023-04-14T22:15:16.773Z,2.10
2023-04-14T22:17:44.823Z,2.40
2023-04-14T22:20:12.063Z,1.60
2023-04-14T22:22:38.949Z,2.00
2023-04-14T22:25:06.625Z,1.50
2023-04-14T22:27:34.398Z,2.30
2023-04-14T22:30:02.654Z,1.65
2023-04-14T22:32:29.596Z,1.67
2023-04-14T22:34:56.589Z,1.90
2023-04-14T22:37:23.451Z,1.42
2023-04-14T22:39:50.445Z,1.50
2023-04-14T22:42:17.592Z,1.77
2023-04-14T22:44:44.506Z,1.55
2023-04-14T22:47:11.379Z,1.83
2023-04-14T22:49:38.207Z,1.70
2023-04-14T22:52:05.145Z,1.60
2023-04-14T22:54:32.153Z,1.40
2023-04-14T22:56:59.020Z,1.50
2023-04-14T22:59:26.899Z,1.80
2023-04-14T23:01:53.923Z,1.60
2023-04-14T23:04:21.077Z,1.80
2023-04-14T23:06:48.360Z,1.70
2023-04-14T23:09:15.334Z,1.90
2023-04-14T23:11:42.252Z,1.65
2023-04-14T23:14:09.050Z,1.60
2023-04-14T23:16:35.997Z,1.58
2023-04-14T23:19:02.983Z,1.50
2023-04-14T23:21:30.242Z,1.60
2023-04-14T23:23:57.103Z,1.40
2023-04-14T23:26:24.192Z,1.60
2023-04-14T23:28:52.898Z,1.50
2023-04-14T23:31:19.880Z,1.50
2023-04-14T23:33:49.435Z,1.70
2023-04-14T23:36:16.599Z,1.55
2023-04-14T23:38:43.741Z,1.55
2023-04-14T23:41:11.177Z,1.50
2023-04-14T23:43:38.070Z,1.35
2023-04-14T23:46:05.007Z,1.40
2023-04-14T23:48:32.385Z,1.63
2023-04-14T23:51:15.810Z,1.80
2023-04-14T23:53:43.658Z,1.30
2023-04-14T23:56:10.622Z,1.42
2023-04-14T23:58:37.774Z,1.30
